createdAt,value
2022-08-17T00:00:42.758Z,20.33
2022-08-17T00:03:13.598Z,21.47
2022-08-17T00:16:13.774Z,27.23
2022-08-17T00:18:58.403Z,24.30
2022-08-17T00:22:32.142Z,26.03
2022-08-17T00:24:26.519Z,29.53
2022-08-17T00:26:55.176Z,32.10
2022-08-17T00:29:23.684Z,30.10
2022-08-17T00:31:52.092Z,30.90
2022-08-17T00:34:22.035Z,33.33
2022-08-17T00:36:50.426Z,27.63
2022-08-17T00:39:18.881Z,25.97
2022-08-17T00:41:47.737Z,27.43
2022-08-17T00:44:16.552Z,28.30
2022-08-17T00:46:47.941Z,25.50
2022-08-17T00:49:19.717Z,25.60
2022-08-17T00:51:54.581Z,24.73
2022-08-17T00:54:27.426Z,25.43
2022-08-17T00:57:00.035Z,25.63
2022-08-17T00:59:32.530Z,29.10
2022-08-17T01:02:02.565Z,29.33
2022-08-17T01:04:33.110Z,28.97
2022-08-17T01:07:04.770Z,25.57
2022-08-17T01:09:34.952Z,22.50
2022-08-17T01:12:03.509Z,25.73
2022-08-17T01:14:32.846Z,24.97
2022-08-17T01:17:01.523Z,23.97
2022-08-17T01:19:34.371Z,24.80
2022-08-17T01:22:10.491Z,25.33
2022-08-17T01:24:45.730Z,25.40
2022-08-17T01:27:18.510Z,26.13
2022-08-17T01:29:52.350Z,24.80
2022-08-17T01:32:21.093Z,27.13
2022-08-17T01:34:50.900Z,24.40
2022-08-17T01:37:21.918Z,26.30
2022-08-17T01:39:57.938Z,28.83
2022-08-17T01:42:37.977Z,26.83
2022-08-17T01:45:10.030Z,26.87
2022-08-17T01:47:38.834Z,27.40
2022-08-17T01:50:15.879Z,31.50
2022-08-17T01:52:45.570Z,31.40
2022-08-17T01:55:18.915Z,31.87
2022-08-17T01:57:47.490Z,33.20
2022-08-17T02:00:16.684Z,33.30
2022-08-17T02:02:46.218Z,32.30
2022-08-17T02:05:15.212Z,32.20
2022-08-17T02:07:59.433Z,29.80
2022-08-17T02:10:33.837Z,27.00
2022-08-17T02:13:03.331Z,28.37
2022-08-17T02:15:32.373Z,29.50
2022-08-17T02:18:01.593Z,27.80
2022-08-17T02:20:41.262Z,28.37
2022-08-17T02:23:15.282Z,30.77
2022-08-17T02:25:48.961Z,31.93
2022-08-17T02:28:18.768Z,29.60
2022-08-17T02:31:00.335Z,26.80
2022-08-17T02:33:43.100Z,32.40
2022-08-17T02:36:13.371Z,28.77
2022-08-17T02:38:42.975Z,33.17
2022-08-17T02:41:13.227Z,34.33
2022-08-17T02:43:42.007Z,32.77
2022-08-17T02:46:12.818Z,32.33
2022-08-17T02:48:42.859Z,34.50
2022-08-17T02:51:11.448Z,31.53
2022-08-17T02:53:40.277Z,31.27
2022-08-17T02:56:08.704Z,31.33
2022-08-17T02:58:38.517Z,31.20
2022-08-17T03:01:09.721Z,31.33
2022-08-17T03:03:39.499Z,30.13
2022-08-17T03:06:08.797Z,28.17
2022-08-17T03:08:37.626Z,29.50
2022-08-17T03:11:06.486Z,29.27
2022-08-17T03:13:35.098Z,29.17
2022-08-17T03:16:05.430Z,28.40
2022-08-17T03:18:33.957Z,27.57
2022-08-17T03:21:04.793Z,26.93
2022-08-17T03:23:33.863Z,26.50
2022-08-17T03:26:02.292Z,28.30
2022-08-17T03:28:31.715Z,27.03
2022-08-17T03:31:00.249Z,26.13
2022-08-17T03:33:30.581Z,22.80
2022-08-17T03:35:59.567Z,24.00
2022-08-17T03:38:28.116Z,25.00
2022-08-17T03:40:59.751Z,24.53
2022-08-17T03:43:31.440Z,23.60
2022-08-17T03:46:33.842Z,22.77
2022-08-17T03:49:24.382Z,23.77
2022-08-17T03:52:10.989Z,23.03
2022-08-17T03:54:57.008Z,21.67
2022-08-17T03:57:26.384Z,22.60
2022-08-17T03:59:55.715Z,20.13
2022-08-17T04:02:28.165Z,21.23
2022-08-17T04:04:59.083Z,22.87
2022-08-17T04:07:30.084Z,17.63
2022-08-17T04:09:59.569Z,18.33
2022-08-17T04:12:31.087Z,22.63
2022-08-17T04:14:59.977Z,19.57
2022-08-17T04:17:30.444Z,21.57
2022-08-17T04:20:00.297Z,19.37
2022-08-17T04:22:30.558Z,19.63
2022-08-17T04:25:05.281Z,27.63
2022-08-17T04:27:33.915Z,17.23
2022-08-17T04:30:02.403Z,18.63
2022-08-17T04:33:05.448Z,19.30
2022-08-17T04:35:23.827Z,22.33
2022-08-17T04:37:52.555Z,22.83
2022-08-17T04:40:40.763Z,20.20
2022-08-17T04:43:12.908Z,19.43
2022-08-17T04:45:55.496Z,21.23
2022-08-17T04:48:29.703Z,17.33
2022-08-17T04:51:10.460Z,20.03
2022-08-17T04:53:40.717Z,17.97
2022-08-17T04:56:17.059Z,17.50
2022-08-17T04:58:50.341Z,13.93
2022-08-17T05:01:23.257Z,13.77
2022-08-17T05:03:53.757Z,16.73
2022-08-17T05:06:24.086Z,12.50
2022-08-17T05:08:52.604Z,12.50
2022-08-17T05:11:21.118Z,12.17
2022-08-17T05:13:50.885Z,13.03
2022-08-17T05:16:20.804Z,10.50
2022-08-17T05:18:49.683Z,8.77
2022-08-17T05:21:18.514Z,10.07
2022-08-17T05:23:53.942Z,12.13
2022-08-17T05:26:26.765Z,8.93
2022-08-17T05:29:00.475Z,10.37
2022-08-17T05:31:31.769Z,10.27
2022-08-17T05:34:00.498Z,11.07
2022-08-17T05:36:42.114Z,12.30
2022-08-17T05:39:15.709Z,13.80
2022-08-17T05:41:48.770Z,14.20
2022-08-17T05:44:18.042Z,12.23
2022-08-17T05:46:51.231Z,12.17
2022-08-17T05:49:25.733Z,17.47
2022-08-17T05:52:20.117Z,14.37
2022-08-17T05:55:04.789Z,18.90
2022-08-17T05:57:59.981Z,16.57
2022-08-17T06:00:33.127Z,16.53
2022-08-17T06:03:17.113Z,15.53
2022-08-17T06:05:56.125Z,18.57
2022-08-17T06:08:33.553Z,18.67
2022-08-17T06:11:12.945Z,19.67
2022-08-17T06:13:58.374Z,21.37
2022-08-17T06:16:34.110Z,20.03
2022-08-17T06:19:11.281Z,20.17
2022-08-17T06:21:43.651Z,21.97
2022-08-17T06:24:24.655Z,22.53
2022-08-17T06:26:56.993Z,20.70
2022-08-17T06:29:37.377Z,19.53
2022-08-17T06:32:08.954Z,23.93
2022-08-17T06:34:39.267Z,20.27
2022-08-17T06:37:21.370Z,21.70
2022-08-17T06:39:59.039Z,28.60
2022-08-17T06:43:06.840Z,26.57
2022-08-17T06:45:33.115Z,26.97
2022-08-17T06:48:08.384Z,26.63
2022-08-17T06:50:40.231Z,29.93
2022-08-17T06:53:20.633Z,26.77
2022-08-17T06:55:56.584Z,27.33
2022-08-17T06:58:29.577Z,30.13
2022-08-17T07:01:01.756Z,27.93
2022-08-17T07:03:38.162Z,31.63
2022-08-17T07:06:12.183Z,30.67
2022-08-17T07:08:50.487Z,31.97
2022-08-17T07:11:25.123Z,32.57
2022-08-17T07:14:04.831Z,33.83
2022-08-17T07:16:39.659Z,34.00
2022-08-17T07:19:10.933Z,34.20
2022-08-17T07:21:48.583Z,34.13
2022-08-17T07:24:37.393Z,36.47
2022-08-17T07:27:13.121Z,37.47
2022-08-17T07:29:46.786Z,36.53
2022-08-17T07:32:19.689Z,42.77
2022-08-17T07:35:10.740Z,41.33
2022-08-17T07:37:42.384Z,42.53
2022-08-17T07:40:25.072Z,41.87
2022-08-17T07:43:21.949Z,43.10
2022-08-17T07:46:17.405Z,44.27
2022-08-17T07:48:49.768Z,46.17
2022-08-17T07:51:25.392Z,46.57
2022-08-17T07:54:12.865Z,46.93
2022-08-17T07:56:46.019Z,43.83
2022-08-17T07:59:18.148Z,45.53
2022-08-17T08:02:08.191Z,45.10
2022-08-17T08:07:32.022Z,47.17
2022-08-17T08:10:08.735Z,46.93
2022-08-17T08:12:40.097Z,43.97
2022-08-17T08:15:18.974Z,46.07
2022-08-17T08:17:52.684Z,47.60
2022-08-17T08:20:52.348Z,45.73
2022-08-17T08:23:26.668Z,48.17
2022-08-17T08:26:08.260Z,46.17
2022-08-17T08:28:46.030Z,43.73
2022-08-17T08:31:42.091Z,44.20
2022-08-17T08:34:58.986Z,43.63
2022-08-17T08:37:22.817Z,39.20
2022-08-17T08:40:11.094Z,40.93
2022-08-17T08:42:51.001Z,41.90
2022-08-17T08:45:26.246Z,37.87
2022-08-17T08:48:23.168Z,41.10
2022-08-17T08:51:14.965Z,42.60
2022-08-17T08:53:53.508Z,42.23
2022-08-17T08:56:32.909Z,41.73
2022-08-17T08:59:23.744Z,41.93
2022-08-17T09:02:03.659Z,41.63
2022-08-17T09:05:12.786Z,43.70
2022-08-17T09:07:50.834Z,41.73
2022-08-17T09:10:29.559Z,43.97
2022-08-17T09:13:10.219Z,41.13
2022-08-17T09:15:43.795Z,43.47
2022-08-17T09:19:00.203Z,42.40
2022-08-17T09:21:12.626Z,43.33
2022-08-17T09:23:49.884Z,46.70
2022-08-17T09:26:23.262Z,46.67
2022-08-17T09:28:54.405Z,45.50
2022-08-17T09:31:48.191Z,47.20
2022-08-17T09:34:21.310Z,47.40
2022-08-17T09:37:12.604Z,48.30
2022-08-17T09:39:47.932Z,47.60
2022-08-17T09:42:24.907Z,48.43
2022-08-17T09:44:59.349Z,49.70
2022-08-17T09:47:33.885Z,47.23
2022-08-17T09:50:11.608Z,48.57
2022-08-17T09:52:40.441Z,48.87
2022-08-17T09:55:11.256Z,49.00
2022-08-17T09:57:53.656Z,49.80
2022-08-17T10:00:27.046Z,53.13
2022-08-17T10:03:19.981Z,52.63
2022-08-17T10:05:58.185Z,53.03
2022-08-17T10:08:36.381Z,55.83
2022-08-17T10:11:19.897Z,56.47
2022-08-17T10:13:59.515Z,54.20
2022-08-17T10:16:37.495Z,55.90
2022-08-17T10:19:17.351Z,57.33
2022-08-17T10:22:14.644Z,55.70
2022-08-17T10:25:22.564Z,58.07
2022-08-17T10:27:59.590Z,57.37
2022-08-17T10:30:32.345Z,57.83
2022-08-17T10:33:03.757Z,60.33
2022-08-17T10:35:39.638Z,57.53
2022-08-17T10:38:25.508Z,60.70
2022-08-17T10:41:02.335Z,59.70
2022-08-17T10:44:36.794Z,61.13
2022-08-17T10:46:54.361Z,61.30
2022-08-17T10:49:35.101Z,63.03
2022-08-17T10:52:09.146Z,64.40
2022-08-17T10:54:58.513Z,65.77
2022-08-17T10:57:42.572Z,65.70
2022-08-17T11:00:29.435Z,64.53
2022-08-17T11:03:00.305Z,63.50
2022-08-17T11:05:48.951Z,62.27
2022-08-17T11:08:45.823Z,65.23
2022-08-17T11:11:40.427Z,64.53
2022-08-17T11:14:24.988Z,66.93
2022-08-17T11:17:12.981Z,68.10
2022-08-17T11:20:04.886Z,69.60
2022-08-17T11:22:58.145Z,69.53
2022-08-17T11:25:35.240Z,70.40
2022-08-17T11:28:10.790Z,67.97
2022-08-17T11:30:49.420Z,71.77
2022-08-17T11:33:52.552Z,69.37
2022-08-17T11:36:34.521Z,67.57
2022-08-17T11:39:07.383Z,72.40
2022-08-17T11:41:49.729Z,78.27
2022-08-17T11:44:37.856Z,78.90
2022-08-17T11:47:30.319Z,80.40
2022-08-17T11:50:30.057Z,82.27
2022-08-17T11:53:00.492Z,78.53
2022-08-17T11:56:05.364Z,85.20
2022-08-17T11:58:40.638Z,84.13
2022-08-17T12:01:13.582Z,85.57
2022-08-17T12:03:55.606Z,85.93
2022-08-17T12:06:45.511Z,89.70
2022-08-17T12:09:20.175Z,90.37
2022-08-17T12:12:13.432Z,92.70
2022-08-17T12:17:41.299Z,95.27
2022-08-17T12:20:17.299Z,96.17
2022-08-17T12:22:55.011Z,98.67
2022-08-17T12:25:33.188Z,94.33
2022-08-17T12:28:06.872Z,97.67
2022-08-17T12:30:40.890Z,98.93
2022-08-17T12:33:25.679Z,100.60
2022-08-17T12:36:03.156Z,100.67
2022-08-17T12:38:34.810Z,101.10
2022-08-17T12:41:20.949Z,96.30
2022-08-17T12:44:02.386Z,90.37
2022-08-17T12:46:35.103Z,89.33
2022-08-17T12:49:23.032Z,88.10
2022-08-17T12:51:55.116Z,86.00
2022-08-17T12:54:40.708Z,86.70
2022-08-17T12:57:15.467Z,82.83
2022-08-17T12:59:47.507Z,82.37
2022-08-17T13:02:44.005Z,85.37
2022-08-17T13:05:25.324Z,83.53
2022-08-17T13:07:54.667Z,81.77
2022-08-17T13:10:32.249Z,80.00
2022-08-17T13:13:05.985Z,77.20
2022-08-17T13:15:44.705Z,72.70
2022-08-17T13:18:39.138Z,78.63
2022-08-17T13:21:13.231Z,74.43
2022-08-17T13:23:44.813Z,76.13
2022-08-17T13:26:29.454Z,79.70
2022-08-17T13:29:00.638Z,75.97
2022-08-17T13:31:42.918Z,74.20
2022-08-17T13:34:34.611Z,77.43
2022-08-17T13:37:36.214Z,79.97
2022-08-17T13:40:37.010Z,71.93
2022-08-17T13:43:05.917Z,73.90
2022-08-17T13:46:08.544Z,70.27
2022-08-17T13:48:37.750Z,69.90
2022-08-17T13:51:35.491Z,72.73
2022-08-17T13:54:24.459Z,70.87
2022-08-17T13:57:02.620Z,70.40
2022-08-17T13:59:55.215Z,70.27
2022-08-17T14:02:28.668Z,66.00
2022-08-17T14:04:58.502Z,68.33
2022-08-17T14:07:34.871Z,68.87
2022-08-17T14:10:09.404Z,65.67
2022-08-17T14:12:41.141Z,65.43
2022-08-17T14:15:22.310Z,65.37
2022-08-17T14:17:53.664Z,63.70
2022-08-17T14:20:24.726Z,62.53
2022-08-17T14:22:55.853Z,58.57
2022-08-17T14:25:27.587Z,61.97
2022-08-17T14:27:56.458Z,59.73
2022-08-17T14:30:29.109Z,55.10
2022-08-17T14:33:02.277Z,56.17
2022-08-17T14:35:30.802Z,54.53
2022-08-17T14:37:59.838Z,57.27
2022-08-17T14:40:28.361Z,54.87
2022-08-17T14:42:58.177Z,53.77
2022-08-17T14:45:31.695Z,55.73
2022-08-17T14:48:04.241Z,53.97
2022-08-17T14:50:35.362Z,55.30
2022-08-17T14:53:05.776Z,51.97
2022-08-17T14:55:35.226Z,53.17
2022-08-17T14:58:05.123Z,54.40
2022-08-17T15:00:33.727Z,51.50
2022-08-17T15:03:04.543Z,50.93
2022-08-17T15:05:35.420Z,53.97
2022-08-17T15:08:05.921Z,52.27
2022-08-17T15:10:34.866Z,50.60
2022-08-17T15:13:03.996Z,50.80
2022-08-17T15:15:32.780Z,50.13
2022-08-17T15:18:02.612Z,48.23
2022-08-17T15:20:33.558Z,46.57
2022-08-17T15:23:02.057Z,50.67
2022-08-17T15:25:33.292Z,47.37
2022-08-17T15:28:03.896Z,50.27
2022-08-17T15:30:32.677Z,49.57
2022-08-17T15:33:02.863Z,52.00
2022-08-17T15:35:34.872Z,48.93
2022-08-17T15:38:11.729Z,49.60
2022-08-17T15:40:49.942Z,47.97
2022-08-17T15:43:26.464Z,46.30
2022-08-17T15:46:00.633Z,43.57
2022-08-17T15:48:41.701Z,45.23
2022-08-17T15:51:16.432Z,38.03
2022-08-17T15:53:48.222Z,32.67
2022-08-17T15:56:21.259Z,34.40
2022-08-17T15:58:50.472Z,34.77
2022-08-17T16:02:14.259Z,37.97
2022-08-17T16:04:26.545Z,37.47
2022-08-17T16:07:01.067Z,27.10
2022-08-17T16:09:29.761Z,25.93
2022-08-17T16:11:58.407Z,27.73
2022-08-17T16:14:33.798Z,29.30
2022-08-17T16:17:03.829Z,27.40
2022-08-17T16:19:33.624Z,29.77
2022-08-17T16:22:04.200Z,28.10
2022-08-17T16:24:33.240Z,26.90
2022-08-17T16:27:01.972Z,28.17
2022-08-17T16:29:30.455Z,27.70
2022-08-17T16:31:59.406Z,31.93
2022-08-17T16:34:27.792Z,31.60
2022-08-17T16:36:56.818Z,27.80
2022-08-17T16:39:30.890Z,29.67
2022-08-17T16:42:00.387Z,25.80
2022-08-17T16:44:30.524Z,26.77
2022-08-17T16:47:00.058Z,26.33
2022-08-17T16:49:36.799Z,26.27
2022-08-17T16:52:10.385Z,25.70
2022-08-17T16:54:44.320Z,26.37
2022-08-17T16:57:14.173Z,27.73
2022-08-17T16:59:47.490Z,27.37
2022-08-17T17:02:17.906Z,28.27
2022-08-17T17:04:53.270Z,27.77
2022-08-17T17:07:38.943Z,27.10
2022-08-17T17:10:13.863Z,25.37
2022-08-17T17:13:02.745Z,25.57
2022-08-17T17:15:47.386Z,26.50
2022-08-17T17:18:17.927Z,29.10
2022-08-17T17:20:55.319Z,27.77
2022-08-17T17:23:36.229Z,29.33
2022-08-17T17:26:19.181Z,28.23
2022-08-17T17:29:00.943Z,30.90
2022-08-17T17:31:38.227Z,29.73
2022-08-17T17:34:11.568Z,30.17
2022-08-17T17:36:43.129Z,31.20
2022-08-17T17:39:16.753Z,31.03
2022-08-17T17:41:51.958Z,32.83
2022-08-17T17:44:25.585Z,34.83
2022-08-17T17:46:57.687Z,36.47
2022-08-17T17:49:29.951Z,35.17
2022-08-17T17:52:13.188Z,35.13
2022-08-17T17:54:55.289Z,37.40
2022-08-17T17:57:36.442Z,35.27
2022-08-17T18:00:12.546Z,35.77
2022-08-17T18:02:52.953Z,33.10
2022-08-17T18:05:44.675Z,32.90
2022-08-17T18:08:32.355Z,33.23
2022-08-17T18:11:24.564Z,33.67
2022-08-17T18:14:04.921Z,34.57
2022-08-17T18:16:34.275Z,37.80
2022-08-17T18:19:03.087Z,38.47
2022-08-17T18:21:48.513Z,38.33
2022-08-17T18:24:31.259Z,39.63
2022-08-17T18:27:02.857Z,40.43
2022-08-17T18:29:45.545Z,38.37
2022-08-17T18:32:35.673Z,40.93
2022-08-17T18:35:39.759Z,44.23
2022-08-17T18:38:24.251Z,42.93
2022-08-17T18:41:01.025Z,47.63
2022-08-17T18:43:43.775Z,48.67
2022-08-17T18:46:30.167Z,49.00
2022-08-17T18:49:04.900Z,51.33
2022-08-17T18:51:42.307Z,52.93
2022-08-17T18:54:21.373Z,48.13
2022-08-17T18:56:52.294Z,46.57
2022-08-17T18:59:29.061Z,44.33
2022-08-17T19:02:33.642Z,48.23
2022-08-17T19:05:11.862Z,54.60
2022-08-17T19:07:45.686Z,45.80
2022-08-17T19:10:25.284Z,49.33
2022-08-17T19:13:00.250Z,46.33
2022-08-17T19:15:36.194Z,47.00
2022-08-17T19:18:15.635Z,45.53
2022-08-17T19:20:49.029Z,42.00
2022-08-17T19:23:26.448Z,44.77
2022-08-17T19:25:58.641Z,43.87
2022-08-17T19:28:31.367Z,43.73
2022-08-17T19:31:08.434Z,44.03
2022-08-17T19:33:38.676Z,45.63
2022-08-17T19:36:11.200Z,46.53
2022-08-17T19:38:46.752Z,47.27
2022-08-17T19:41:23.844Z,46.60
2022-08-17T19:44:07.584Z,44.33
2022-08-17T19:46:50.106Z,43.47
2022-08-17T19:49:48.363Z,41.27
2022-08-17T19:52:41.766Z,43.70
2022-08-17T19:55:21.025Z,43.23
2022-08-17T19:58:03.510Z,45.70
2022-08-17T20:00:35.029Z,47.83
2022-08-17T20:03:14.587Z,48.47
2022-08-17T20:06:11.960Z,56.60
2022-08-17T20:08:49.948Z,48.80
2022-08-17T20:11:25.654Z,50.50
2022-08-17T20:14:01.920Z,49.43
2022-08-17T20:16:32.654Z,48.40
2022-08-17T20:19:05.120Z,46.10
2022-08-17T20:21:43.055Z,48.30
2022-08-17T20:24:22.032Z,44.83
2022-08-17T20:26:58.638Z,43.50
2022-08-17T20:29:39.987Z,43.53
2022-08-17T20:32:31.497Z,47.60
2022-08-17T20:35:11.312Z,47.67
2022-08-17T20:37:45.007Z,50.67
2022-08-17T20:40:26.017Z,47.23
2022-08-17T20:42:55.010Z,46.50
2022-08-17T20:46:09.002Z,85.00
2022-08-17T20:48:42.874Z,75.97
2022-08-17T20:51:26.127Z,69.73
2022-08-17T20:54:20.807Z,74.17
2022-08-17T20:56:57.421Z,65.27
2022-08-17T20:59:58.493Z,82.17
2022-08-17T21:02:29.756Z,77.80
2022-08-17T21:05:32.393Z,90.27
2022-08-17T21:08:15.859Z,75.80
2022-08-17T21:10:48.112Z,72.20
2022-08-17T21:13:59.419Z,84.60
2022-08-17T21:16:49.022Z,74.50
2022-08-17T21:19:44.444Z,70.33
2022-08-17T21:22:35.254Z,79.47
2022-08-17T21:25:17.174Z,72.87
2022-08-17T21:28:00.185Z,70.70
2022-08-17T21:30:50.397Z,61.17
2022-08-17T21:33:26.407Z,62.87
2022-08-17T21:36:11.905Z,61.20
2022-08-17T21:38:51.556Z,61.60
2022-08-17T21:41:27.553Z,65.53
2022-08-17T21:44:05.486Z,69.37
2022-08-17T21:46:38.663Z,70.33
2022-08-17T21:49:13.690Z,67.20
2022-08-17T21:51:46.718Z,64.00
2022-08-17T21:54:32.096Z,61.20
2022-08-17T21:57:03.721Z,66.43
2022-08-17T21:59:37.228Z,63.80
2022-08-17T22:02:10.966Z,57.93
2022-08-17T22:04:43.010Z,61.47
2022-08-17T22:07:13.671Z,77.47
2022-08-17T22:09:44.869Z,71.80
2022-08-17T22:12:17.251Z,68.17
2022-08-17T22:14:57.495Z,75.40
2022-08-17T22:17:28.789Z,72.97
2022-08-17T22:20:01.557Z,71.33
2022-08-17T22:22:59.142Z,72.17
2022-08-17T22:25:29.677Z,75.37
2022-08-17T22:28:00.974Z,73.47
2022-08-17T22:30:36.005Z,76.23
2022-08-17T22:33:36.637Z,74.83
2022-08-17T22:36:25.179Z,77.10
2022-08-17T22:38:56.038Z,77.20
2022-08-17T22:41:40.766Z,72.00
2022-08-17T22:44:24.393Z,64.57
2022-08-17T22:46:59.527Z,67.03
2022-08-17T22:49:33.014Z,66.63
2022-08-17T22:52:05.317Z,65.77
2022-08-17T22:54:51.691Z,73.93
2022-08-17T22:57:43.654Z,64.73
2022-08-17T23:00:32.215Z,67.90
2022-08-17T23:03:15.973Z,64.87
2022-08-17T23:05:47.555Z,66.67
2022-08-17T23:08:21.442Z,66.77
2022-08-17T23:10:50.564Z,72.07
2022-08-17T23:13:21.456Z,76.40
2022-08-17T23:15:52.390Z,71.30
2022-08-17T23:18:23.556Z,80.53
2022-08-17T23:20:52.107Z,77.63
2022-08-17T23:23:23.684Z,64.80
2022-08-17T23:25:52.539Z,74.07
2022-08-17T23:28:21.968Z,66.53
2022-08-17T23:30:50.469Z,59.77
2022-08-17T23:33:25.690Z,72.43
2022-08-17T23:35:55.051Z,71.70
2022-08-17T23:38:27.605Z,79.20
2022-08-17T23:41:00.256Z,91.13
2022-08-17T23:43:31.565Z,97.60
2022-08-17T23:46:03.729Z,96.13
2022-08-17T23:48:36.749Z,109.30
2022-08-17T23:51:09.845Z,108.90
2022-08-17T23:53:46.652Z,125.30
2022-08-17T23:56:15.497Z,141.50
2022-08-17T23:58:45.407Z,145.07
